Seville, Ohio
Current Conditions -  °F | °C
As of 10:54 PM on Sunday 23 Nov 2014 (Local Time) from KAKR Reporting Station
Light Rain Light Rain  
Wind Chill: 55°   Ceiling: 5500
Heat Index: 55°   Visibility: 5mi
Dew Point: 50°   Wind: 12mph
Humidity: 83%   Direction: 150°SSE
Pressure: 29.42"   Gusts: 25mph
Location:  41.01°N, 81.86°W
Report Text: KAKR 240354Z AUTO 15010G22KT 110V180 5SM -RA FEW024 BKN055 OVC090 13/10 A2942 RMK AO2 PRESFR SLP961 P0007 T01280100
Loading
Personal Weather Stations






























Interactive Weather Map New forecast layout! Learn more

10-Day Weather Forecast

Advertisements
Track Severe Weather on mobile